sensor_id;sensor_type;location;lat;lon;timestamp;P1;P2;P0
70243;PMS7003;57634;51.136;17.024;2022-12-18T00:01:56;10;8;5
70243;PMS7003;57634;51.136;17.024;2022-12-18T00:05:00;11;10;6
70243;PMS7003;57634;51.136;17.024;2022-12-18T00:08:01;14;11;6
70243;PMS7003;57634;51.136;17.024;2022-12-18T00:11:07;11;10;6
70243;PMS7003;57634;51.136;17.024;2022-12-18T00:14:38;12;8;6
70243;PMS7003;57634;51.136;17.024;2022-12-18T00:17:39;11;9;6
70243;PMS7003;57634;51.136;17.024;2022-12-18T00:20:40;11;7;5
70243;PMS7003;57634;51.136;17.024;2022-12-18T00:23:42;13;10;6
70243;PMS7003;57634;51.136;17.024;2022-12-18T00:26:44;10;9;5
70243;PMS7003;57634;51.136;17.024;2022-12-18T00:29:46;13;9;6
70243;PMS7003;57634;51.136;17.024;2022-12-18T00:32:49;14;12;8
70243;PMS7003;57634;51.136;17.024;2022-12-18T00:35:50;10;10;6
70243;PMS7003;57634;51.136;17.024;2022-12-18T00:38:53;10;9;5
70243;PMS7003;57634;51.136;17.024;2022-12-18T00:41:55;8;7;5
70243;PMS7003;57634;51.136;17.024;2022-12-18T00:45:08;12;8;5
70243;PMS7003;57634;51.136;17.024;2022-12-18T00:48:36;12;8;5
70243;PMS7003;57634;51.136;17.024;2022-12-18T00:51:37;10;7;4
70243;PMS7003;57634;51.136;17.024;2022-12-18T00:54:38;9;7;5
70243;PMS7003;57634;51.136;17.024;2022-12-18T00:57:40;7;6;4
70243;PMS7003;57634;51.136;17.024;2022-12-18T01:00:42;9;8;4
70243;PMS7003;57634;51.136;17.024;2022-12-18T01:03:44;13;8;5
70243;PMS7003;57634;51.136;17.024;2022-12-18T01:06:48;8;7;5
70243;PMS7003;57634;51.136;17.024;2022-12-18T01:09:50;11;9;5
70243;PMS7003;57634;51.136;17.024;2022-12-18T01:12:51;13;9;6
70243;PMS7003;57634;51.136;17.024;2022-12-18T01:15:53;9;7;3
70243;PMS7003;57634;51.136;17.024;2022-12-18T01:18:54;11;9;5
70243;PMS7003;57634;51.136;17.024;2022-12-18T01:21:56;9;9;6
70243;PMS7003;57634;51.136;17.024;2022-12-18T01:24:58;11;10;6
70243;PMS7003;57634;51.136;17.024;2022-12-18T01:27:59;11;8;5
70243;PMS7003;57634;51.136;17.024;2022-12-18T01:31:27;13;10;6
70243;PMS7003;57634;51.136;17.024;2022-12-18T01:34:31;10;8;5
70243;PMS7003;57634;51.136;17.024;2022-12-18T01:37:32;9;8;5
70243;PMS7003;57634;51.136;17.024;2022-12-18T01:40:34;12;9;6
70243;PMS7003;57634;51.136;17.024;2022-12-18T01:46:48;10;9;5
70243;PMS7003;57634;51.136;17.024;2022-12-18T01:49:49;11;9;6
70243;PMS7003;57634;51.136;17.024;2022-12-18T01:52:52;9;7;4
70243;PMS7003;57634;51.136;17.024;2022-12-18T01:55:56;9;7;5
70243;PMS7003;57634;51.136;17.024;2022-12-18T01:59:03;13;9;5
70243;PMS7003;57634;51.136;17.024;2022-12-18T02:02:33;12;10;6
70243;PMS7003;57634;51.136;17.024;2022-12-18T02:12:12;15;10;7
70243;PMS7003;57634;51.136;17.024;2022-12-18T02:18:58;10;8;5
70243;PMS7003;57634;51.136;17.024;2022-12-18T02:25:19;9;8;5
70243;PMS7003;57634;51.136;17.024;2022-12-18T02:28:30;9;9;5
70243;PMS7003;57634;51.136;17.024;2022-12-18T02:31:37;10;8;5
70243;PMS7003;57634;51.136;17.024;2022-12-18T02:35:13;8;7;4
70243;PMS7003;57634;51.136;17.024;2022-12-18T02:38:19;9;9;5
70243;PMS7003;57634;51.136;17.024;2022-12-18T02:41:21;13;10;6
70243;PMS7003;57634;51.136;17.024;2022-12-18T02:44:25;8;6;3
70243;PMS7003;57634;51.136;17.024;2022-12-18T02:47:28;16;13;8
70243;PMS7003;57634;51.136;17.024;2022-12-18T02:50:36;11;6;5
70243;PMS7003;57634;51.136;17.024;2022-12-18T02:53:44;11;9;6
70243;PMS7003;57634;51.136;17.024;2022-12-18T02:57:42;57;43;26
70243;PMS7003;57634;51.136;17.024;2022-12-18T03:03:51;12;10;5
70243;PMS7003;57634;51.136;17.024;2022-12-18T03:06:59;11;10;5
70243;PMS7003;57634;51.136;17.024;2022-12-18T03:10:06;12;9;5
70243;PMS7003;57634;51.136;17.024;2022-12-18T03:16:50;11;9;5
70243;PMS7003;57634;51.136;17.024;2022-12-18T03:19:56;9;8;4
70243;PMS7003;57634;51.136;17.024;2022-12-18T03:23:11;10;9;5
70243;PMS7003;57634;51.136;17.024;2022-12-18T03:26:12;12;9;6
70243;PMS7003;57634;51.136;17.024;2022-12-18T03:36:12;10;7;4
70243;PMS7003;57634;51.136;17.024;2022-12-18T03:39:13;9;6;4
70243;PMS7003;57634;51.136;17.024;2022-12-18T03:42:22;8;5;3
70243;PMS7003;57634;51.136;17.024;2022-12-18T03:49:32;8;7;3
70243;PMS7003;57634;51.136;17.024;2022-12-18T03:52:33;7;6;3
70243;PMS7003;57634;51.136;17.024;2022-12-18T03:55:39;8;7;4
70243;PMS7003;57634;51.136;17.024;2022-12-18T03:58:41;8;8;5
70243;PMS7003;57634;51.136;17.024;2022-12-18T04:01:48;10;9;5
70243;PMS7003;57634;51.136;17.024;2022-12-18T04:04:52;8;6;5
70243;PMS7003;57634;51.136;17.024;2022-12-18T04:08:24;6;6;3
70243;PMS7003;57634;51.136;17.024;2022-12-18T04:11:26;9;8;5
70243;PMS7003;57634;51.136;17.024;2022-12-18T04:14:28;7;7;4
70243;PMS7003;57634;51.136;17.024;2022-12-18T04:17:29;10;9;4
70243;PMS7003;57634;51.136;17.024;2022-12-18T04:20:30;14;10;5
70243;PMS7003;57634;51.136;17.024;2022-12-18T04:23:32;9;8;5
70243;PMS7003;57634;51.136;17.024;2022-12-18T04:26:33;8;7;5
70243;PMS7003;57634;51.136;17.024;2022-12-18T04:29:34;8;8;5
70243;PMS7003;57634;51.136;17.024;2022-12-18T04:32:36;8;8;5
70243;PMS7003;57634;51.136;17.024;2022-12-18T04:35:38;10;8;5
70243;PMS7003;57634;51.136;17.024;2022-12-18T04:38:41;9;8;5
70243;PMS7003;57634;51.136;17.024;2022-12-18T04:41:42;13;9;6
70243;PMS7003;57634;51.136;17.024;2022-12-18T04:44:44;12;6;5
70243;PMS7003;57634;51.136;17.024;2022-12-18T04:47:45;6;3;0
70243;PMS7003;57634;51.136;17.024;2022-12-18T04:51:14;7;7;4
70243;PMS7003;57634;51.136;17.024;2022-12-18T04:54:16;9;7;5
70243;PMS7003;57634;51.136;17.024;2022-12-18T04:57:17;7;6;5
70243;PMS7003;57634;51.136;17.024;2022-12-18T05:00:21;9;7;4
70243;PMS7003;57634;51.136;17.024;2022-12-18T05:03:23;9;7;4
70243;PMS7003;57634;51.136;17.024;2022-12-18T05:06:25;9;8;6
70243;PMS7003;57634;51.136;17.024;2022-12-18T05:09:26;8;8;5
70243;PMS7003;57634;51.136;17.024;2022-12-18T05:12:28;9;7;4
70243;PMS7003;57634;51.136;17.024;2022-12-18T05:15:30;3;2;0
70243;PMS7003;57634;51.136;17.024;2022-12-18T05:18:32;8;8;5
70243;PMS7003;57634;51.136;17.024;2022-12-18T05:21:34;11;11;5
70243;PMS7003;57634;51.136;17.024;2022-12-18T05:24:35;9;8;5
70243;PMS7003;57634;51.136;17.024;2022-12-18T05:27:36;11;8;5
70243;PMS7003;57634;51.136;17.024;2022-12-18T05:30:38;11;9;5
70243;PMS7003;57634;51.136;17.024;2022-12-18T05:34:08;12;7;5
70243;PMS7003;57634;51.136;17.024;2022-12-18T05:37:10;11;9;6
70243;PMS7003;57634;51.136;17.024;2022-12-18T05:40:12;12;11;5
70243;PMS7003;57634;51.136;17.024;2022-12-18T05:43:13;16;11;7
70243;PMS7003;57634;51.136;17.024;2022-12-18T05:46:15;9;8;5
70243;PMS7003;57634;51.136;17.024;2022-12-18T05:49:20;3;3;0
70243;PMS7003;57634;51.136;17.024;2022-12-18T05:52:21;9;8;5
70243;PMS7003;57634;51.136;17.024;2022-12-18T05:55:23;9;8;5
70243;PMS7003;57634;51.136;17.024;2022-12-18T05:58:24;10;9;6
70243;PMS7003;57634;51.136;17.024;2022-12-18T06:01:26;30;26;17
70243;PMS7003;57634;51.136;17.024;2022-12-18T06:04:28;9;5;3
70243;PMS7003;57634;51.136;17.024;2022-12-18T06:07:29;9;9;5
70243;PMS7003;57634;51.136;17.024;2022-12-18T06:10:31;8;8;5
70243;PMS7003;57634;51.136;17.024;2022-12-18T06:14:02;10;9;5
70243;PMS7003;57634;51.136;17.024;2022-12-18T06:17:06;8;7;5
70243;PMS7003;57634;51.136;17.024;2022-12-18T06:20:08;9;9;6
70243;PMS7003;57634;51.136;17.024;2022-12-18T06:23:09;10;7;4
70243;PMS7003;57634;51.136;17.024;2022-12-18T06:26:11;11;10;6
70243;PMS7003;57634;51.136;17.024;2022-12-18T06:29:13;12;11;7
70243;PMS7003;57634;51.136;17.024;2022-12-18T06:32:14;11;9;5
70243;PMS7003;57634;51.136;17.024;2022-12-18T06:35:15;9;8;6
70243;PMS7003;57634;51.136;17.024;2022-12-18T06:38:17;13;11;6
70243;PMS7003;57634;51.136;17.024;2022-12-18T06:41:20;11;10;5
70243;PMS7003;57634;51.136;17.024;2022-12-18T06:44:22;8;8;5
70243;PMS7003;57634;51.136;17.024;2022-12-18T06:47:23;5;3;0
70243;PMS7003;57634;51.136;17.024;2022-12-18T06:50:24;16;13;7
70243;PMS7003;57634;51.136;17.024;2022-12-18T06:53:26;15;12;7
70243;PMS7003;57634;51.136;17.024;2022-12-18T06:56:54;13;12;8
70243;PMS7003;57634;51.136;17.024;2022-12-18T06:59:57;11;11;6
70243;PMS7003;57634;51.136;17.024;2022-12-18T07:02:58;15;11;6
70243;PMS7003;57634;51.136;17.024;2022-12-18T07:06:00;23;19;13
70243;PMS7003;57634;51.136;17.024;2022-12-18T07:09:02;17;16;9
70243;PMS7003;57634;51.136;17.024;2022-12-18T07:12:03;22;18;12
70243;PMS7003;57634;51.136;17.024;2022-12-18T07:15:06;18;17;10
70243;PMS7003;57634;51.136;17.024;2022-12-18T07:18:08;17;15;9
70243;PMS7003;57634;51.136;17.024;2022-12-18T07:21:12;16;14;9
70243;PMS7003;57634;51.136;17.024;2022-12-18T07:24:15;19;17;11
70243;PMS7003;57634;51.136;17.024;2022-12-18T07:27:16;20;15;10
70243;PMS7003;57634;51.136;17.024;2022-12-18T07:30:18;21;18;12
70243;PMS7003;57634;51.136;17.024;2022-12-18T07:33:19;22;18;13
70243;PMS7003;57634;51.136;17.024;2022-12-18T07:36:47;22;20;12
70243;PMS7003;57634;51.136;17.024;2022-12-18T07:39:49;17;14;9
70243;PMS7003;57634;51.136;17.024;2022-12-18T07:42:50;15;13;8
70243;PMS7003;57634;51.136;17.024;2022-12-18T07:45:52;16;13;7
70243;PMS7003;57634;51.136;17.024;2022-12-18T07:48:54;16;14;9
70243;PMS7003;57634;51.136;17.024;2022-12-18T07:51:55;16;14;7
70243;PMS7003;57634;51.136;17.024;2022-12-18T07:54:57;16;14;9
70243;PMS7003;57634;51.136;17.024;2022-12-18T07:58:00;23;20;11
70243;PMS7003;57634;51.136;17.024;2022-12-18T08:01:06;22;21;13
70243;PMS7003;57634;51.136;17.024;2022-12-18T08:04:09;20;17;11
70243;PMS7003;57634;51.136;17.024;2022-12-18T08:07:11;18;15;9
70243;PMS7003;57634;51.136;17.024;2022-12-18T08:10:12;15;15;8
70243;PMS7003;57634;51.136;17.024;2022-12-18T08:13:14;19;17;10
70243;PMS7003;57634;51.136;17.024;2022-12-18T08:16:42;19;13;7
70243;PMS7003;57634;51.136;17.024;2022-12-18T08:19:43;13;12;8
70243;PMS7003;57634;51.136;17.024;2022-12-18T08:22:45;18;15;9
70243;PMS7003;57634;51.136;17.024;2022-12-18T08:25:46;15;13;8
70243;PMS7003;57634;51.136;17.024;2022-12-18T08:28:48;15;13;8
70243;PMS7003;57634;51.136;17.024;2022-12-18T08:31:50;12;7;5
70243;PMS7003;57634;51.136;17.024;2022-12-18T08:34:51;18;15;9
70243;PMS7003;57634;51.136;17.024;2022-12-18T08:37:53;15;12;7
70243;PMS7003;57634;51.136;17.024;2022-12-18T08:44:07;12;10;6
70243;PMS7003;57634;51.136;17.024;2022-12-18T08:47:47;13;11;7
70243;PMS7003;57634;51.136;17.024;2022-12-18T08:53:59;14;11;7
70243;PMS7003;57634;51.136;17.024;2022-12-18T08:57:01;14;13;8
70243;PMS7003;57634;51.136;17.024;2022-12-18T09:00:03;13;11;7
70243;PMS7003;57634;51.136;17.024;2022-12-18T09:03:09;16;14;6
70243;PMS7003;57634;51.136;17.024;2022-12-18T09:06:14;19;17;11
70243;PMS7003;57634;51.136;17.024;2022-12-18T09:09:16;18;17;9
70243;PMS7003;57634;51.136;17.024;2022-12-18T09:12:18;19;17;10
70243;PMS7003;57634;51.136;17.024;2022-12-18T09:15:20;38;29;18
70243;PMS7003;57634;51.136;17.024;2022-12-18T09:18:56;26;24;15
70243;PMS7003;57634;51.136;17.024;2022-12-18T09:22:02;16;13;7
70243;PMS7003;57634;51.136;17.024;2022-12-18T09:25:03;23;18;11
70243;PMS7003;57634;51.136;17.024;2022-12-18T09:28:12;37;28;18
70243;PMS7003;57634;51.136;17.024;2022-12-18T09:31:18;29;26;17
70243;PMS7003;57634;51.136;17.024;2022-12-18T09:34:21;20;19;10
70243;PMS7003;57634;51.136;17.024;2022-12-18T09:37:22;21;17;10
70243;PMS7003;57634;51.136;17.024;2022-12-18T09:40:25;23;21;13
70243;PMS7003;57634;51.136;17.024;2022-12-18T09:43:59;19;16;10
70243;PMS7003;57634;51.136;17.024;2022-12-18T09:53:33;26;22;14
70243;PMS7003;57634;51.136;17.024;2022-12-18T09:56:39;39;32;20
70243;PMS7003;57634;51.136;17.024;2022-12-18T09:59:43;22;20;13
70243;PMS7003;57634;51.136;17.024;2022-12-18T10:03:17;14;13;8
70243;PMS7003;57634;51.136;17.024;2022-12-18T10:09:37;14;14;8
70243;PMS7003;57634;51.136;17.024;2022-12-18T10:12:56;17;15;8
70243;PMS7003;57634;51.136;17.024;2022-12-18T10:19:39;20;17;12
70243;PMS7003;57634;51.136;17.024;2022-12-18T10:26:09;22;17;10
70243;PMS7003;57634;51.136;17.024;2022-12-18T10:29:14;37;29;19
70243;PMS7003;57634;51.136;17.024;2022-12-18T10:32:21;19;17;12
70243;PMS7003;57634;51.136;17.024;2022-12-18T10:35:53;16;14;9
70243;PMS7003;57634;51.136;17.024;2022-12-18T10:39:07;14;12;9
70243;PMS7003;57634;51.136;17.024;2022-12-18T10:42:11;16;13;8
70243;PMS7003;57634;51.136;17.024;2022-12-18T10:45:20;12;8;4
70243;PMS7003;57634;51.136;17.024;2022-12-18T10:48:22;25;22;13
70243;PMS7003;57634;51.136;17.024;2022-12-18T10:51:26;15;11;5
70243;PMS7003;57634;51.136;17.024;2022-12-18T10:54:30;19;16;10
70243;PMS7003;57634;51.136;17.024;2022-12-18T10:57:34;18;15;10
70243;PMS7003;57634;51.136;17.024;2022-12-18T11:07:26;16;12;9
70243;PMS7003;57634;51.136;17.024;2022-12-18T11:10:38;22;18;12
70243;PMS7003;57634;51.136;17.024;2022-12-18T11:13:41;22;18;11
70243;PMS7003;57634;51.136;17.024;2022-12-18T11:17:24;30;26;17
70243;PMS7003;57634;51.136;17.024;2022-12-18T11:20:35;24;20;11
70243;PMS7003;57634;51.136;17.024;2022-12-18T11:23:37;22;19;10
70243;PMS7003;57634;51.136;17.024;2022-12-18T11:26:49;16;10;5
70243;PMS7003;57634;51.136;17.024;2022-12-18T11:29:50;22;20;13
70243;PMS7003;57634;51.136;17.024;2022-12-18T11:32:58;19;17;8
70243;PMS7003;57634;51.136;17.024;2022-12-18T11:36:41;21;17;11
70243;PMS7003;57634;51.136;17.024;2022-12-18T11:39:46;18;15;10
70243;PMS7003;57634;51.136;17.024;2022-12-18T11:43:01;21;19;13
70243;PMS7003;57634;51.136;17.024;2022-12-18T11:46:17;39;31;18
70243;PMS7003;57634;51.136;17.024;2022-12-18T11:49:51;25;20;11
70243;PMS7003;57634;51.136;17.024;2022-12-18T11:52:56;19;17;10
70243;PMS7003;57634;51.136;17.024;2022-12-18T12:06:09;21;16;9
70243;PMS7003;57634;51.136;17.024;2022-12-18T12:15:52;18;18;11
70243;PMS7003;57634;51.136;17.024;2022-12-18T12:19:31;19;17;11
70243;PMS7003;57634;51.136;17.024;2022-12-18T12:25:53;18;16;11
70243;PMS7003;57634;51.136;17.024;2022-12-18T12:32:47;30;27;16
70243;PMS7003;57634;51.136;17.024;2022-12-18T12:36:07;18;16;11
70243;PMS7003;57634;51.136;17.024;2022-12-18T12:39:16;21;17;12
70243;PMS7003;57634;51.136;17.024;2022-12-18T12:42:26;26;25;16
70243;PMS7003;57634;51.136;17.024;2022-12-18T12:46:13;23;17;10
70243;PMS7003;57634;51.136;17.024;2022-12-18T12:49:19;19;17;11
70243;PMS7003;57634;51.136;17.024;2022-12-18T12:52:31;22;19;12
70243;PMS7003;57634;51.136;17.024;2022-12-18T12:55:38;26;20;12
70243;PMS7003;57634;51.136;17.024;2022-12-18T13:02:05;24;18;11
70243;PMS7003;57634;51.136;17.024;2022-12-18T13:05:38;27;24;14
70243;PMS7003;57634;51.136;17.024;2022-12-18T13:12:01;29;25;16
70243;PMS7003;57634;51.136;17.024;2022-12-18T13:18:57;25;23;15
70243;PMS7003;57634;51.136;17.024;2022-12-18T13:22:00;24;19;12
70243;PMS7003;57634;51.136;17.024;2022-12-18T13:25:01;28;21;12
70243;PMS7003;57634;51.136;17.024;2022-12-18T13:28:05;28;25;16
70243;PMS7003;57634;51.136;17.024;2022-12-18T13:34:27;37;31;16
70243;PMS7003;57634;51.136;17.024;2022-12-18T13:44:24;27;23;15
70243;PMS7003;57634;51.136;17.024;2022-12-18T13:47:36;23;20;11
70243;PMS7003;57634;51.136;17.024;2022-12-18T13:50:39;26;22;15
70243;PMS7003;57634;51.136;17.024;2022-12-18T13:56:54;20;17;11
70243;PMS7003;57634;51.136;17.024;2022-12-18T14:00:26;22;17;12
70243;PMS7003;57634;51.136;17.024;2022-12-18T14:03:31;25;19;12
70243;PMS7003;57634;51.136;17.024;2022-12-18T14:06:32;24;20;13
70243;PMS7003;57634;51.136;17.024;2022-12-18T14:09:36;18;16;10
70243;PMS7003;57634;51.136;17.024;2022-12-18T14:12:44;22;15;8
70243;PMS7003;57634;51.136;17.024;2022-12-18T14:15:57;18;18;12
70243;PMS7003;57634;51.136;17.024;2022-12-18T14:19:02;19;15;9
70243;PMS7003;57634;51.136;17.024;2022-12-18T14:22:32;27;24;15
70243;PMS7003;57634;51.136;17.024;2022-12-18T14:25:33;21;17;10
70243;PMS7003;57634;51.136;17.024;2022-12-18T14:28:42;28;25;15
70243;PMS7003;57634;51.136;17.024;2022-12-18T14:31:46;30;27;17
70243;PMS7003;57634;51.136;17.024;2022-12-18T14:34:59;20;17;12
70243;PMS7003;57634;51.136;17.024;2022-12-18T14:41:49;26;23;14
70243;PMS7003;57634;51.136;17.024;2022-12-18T14:44:50;24;20;9
70243;PMS7003;57634;51.136;17.024;2022-12-18T14:47:52;13;7;2
70243;PMS7003;57634;51.136;17.024;2022-12-18T14:50:55;26;22;13
70243;PMS7003;57634;51.136;17.024;2022-12-18T14:54:03;25;21;12
70243;PMS7003;57634;51.136;17.024;2022-12-18T14:57:18;24;20;13
70243;PMS7003;57634;51.136;17.024;2022-12-18T15:00:27;26;24;14
70243;PMS7003;57634;51.136;17.024;2022-12-18T15:03:29;28;23;13
70243;PMS7003;57634;51.136;17.024;2022-12-18T15:10:11;28;22;14
70243;PMS7003;57634;51.136;17.024;2022-12-18T15:13:20;22;20;13
70243;PMS7003;57634;51.136;17.024;2022-12-18T15:16:25;26;23;13
70243;PMS7003;57634;51.136;17.024;2022-12-18T15:22:36;17;16;10
70243;PMS7003;57634;51.136;17.024;2022-12-18T15:25:37;25;20;13
70243;PMS7003;57634;51.136;17.024;2022-12-18T15:29:15;22;20;12
70243;PMS7003;57634;51.136;17.024;2022-12-18T15:32:19;27;23;13
70243;PMS7003;57634;51.136;17.024;2022-12-18T15:35:25;28;23;14
70243;PMS7003;57634;51.136;17.024;2022-12-18T15:38:27;14;13;9
70243;PMS7003;57634;51.136;17.024;2022-12-18T15:41:30;32;28;17
70243;PMS7003;57634;51.136;17.024;2022-12-18T15:44:34;30;26;15
70243;PMS7003;57634;51.136;17.024;2022-12-18T15:47:35;36;30;18
70243;PMS7003;57634;51.136;17.024;2022-12-18T15:50:36;29;26;15
70243;PMS7003;57634;51.136;17.024;2022-12-18T15:53:38;27;24;14
70243;PMS7003;57634;51.136;17.024;2022-12-18T15:56:40;42;35;21
70243;PMS7003;57634;51.136;17.024;2022-12-18T16:00:19;27;21;12
70243;PMS7003;57634;51.136;17.024;2022-12-18T16:03:21;29;24;14
70243;PMS7003;57634;51.136;17.024;2022-12-18T16:06:22;27;22;15
70243;PMS7003;57634;51.136;17.024;2022-12-18T16:09:24;27;23;13
70243;PMS7003;57634;51.136;17.024;2022-12-18T16:12:26;23;20;12
70243;PMS7003;57634;51.136;17.024;2022-12-18T16:15:27;28;25;15
70243;PMS7003;57634;51.136;17.024;2022-12-18T16:18:29;23;17;10
70243;PMS7003;57634;51.136;17.024;2022-12-18T16:21:30;32;27;18
70243;PMS7003;57634;51.136;17.024;2022-12-18T16:24:33;25;23;15
70243;PMS7003;57634;51.136;17.024;2022-12-18T16:27:36;23;20;12
70243;PMS7003;57634;51.136;17.024;2022-12-18T16:30:38;26;24;16
70243;PMS7003;57634;51.136;17.024;2022-12-18T16:33:40;26;22;14
70243;PMS7003;57634;51.136;17.024;2022-12-18T16:36:42;29;23;12
70243;PMS7003;57634;51.136;17.024;2022-12-18T16:39:44;27;22;15
70243;PMS7003;57634;51.136;17.024;2022-12-18T16:43:11;25;22;14
70243;PMS7003;57634;51.136;17.024;2022-12-18T16:46:12;26;23;12
70243;PMS7003;57634;51.136;17.024;2022-12-18T16:49:15;30;24;15
70243;PMS7003;57634;51.136;17.024;2022-12-18T16:52:18;26;25;15
70243;PMS7003;57634;51.136;17.024;2022-12-18T16:55:20;30;24;14
70243;PMS7003;57634;51.136;17.024;2022-12-18T16:58:22;29;24;15
70243;PMS7003;57634;51.136;17.024;2022-12-18T17:01:24;25;24;15
70243;PMS7003;57634;51.136;17.024;2022-12-18T17:04:26;21;15;11
70243;PMS7003;57634;51.136;17.024;2022-12-18T17:07:27;16;15;8
70243;PMS7003;57634;51.136;17.024;2022-12-18T17:10:29;25;20;13
70243;PMS7003;57634;51.136;17.024;2022-12-18T17:13:31;23;17;11
70243;PMS7003;57634;51.136;17.024;2022-12-18T17:16:32;27;24;15
70243;PMS7003;57634;51.136;17.024;2022-12-18T17:19:34;31;26;15
70243;PMS7003;57634;51.136;17.024;2022-12-18T17:22:35;24;22;13
70243;PMS7003;57634;51.136;17.024;2022-12-18T17:26:03;28;23;13
70243;PMS7003;57634;51.136;17.024;2022-12-18T17:29:08;12;8;0
70243;PMS7003;57634;51.136;17.024;2022-12-18T17:32:12;23;20;14
70243;PMS7003;57634;51.136;17.024;2022-12-18T17:35:13;20;17;14
70243;PMS7003;57634;51.136;17.024;2022-12-18T17:38:15;20;17;10
70243;PMS7003;57634;51.136;17.024;2022-12-18T17:41:17;28;24;14
70243;PMS7003;57634;51.136;17.024;2022-12-18T17:44:20;34;26;15
70243;PMS7003;57634;51.136;17.024;2022-12-18T17:47:21;37;30;19
70243;PMS7003;57634;51.136;17.024;2022-12-18T17:50:22;22;20;11
70243;PMS7003;57634;51.136;17.024;2022-12-18T17:53:24;24;22;14
70243;PMS7003;57634;51.136;17.024;2022-12-18T17:56:26;34;26;17
70243;PMS7003;57634;51.136;17.024;2022-12-18T17:59:27;30;24;15
70243;PMS7003;57634;51.136;17.024;2022-12-18T18:02:29;24;22;12
70243;PMS7003;57634;51.136;17.024;2022-12-18T18:05:58;23;19;12
70243;PMS7003;57634;51.136;17.024;2022-12-18T18:09:01;23;19;12
70243;PMS7003;57634;51.136;17.024;2022-12-18T18:12:03;25;21;12
70243;PMS7003;57634;51.136;17.024;2022-12-18T18:15:17;26;23;14
70243;PMS7003;57634;51.136;17.024;2022-12-18T18:18:18;26;22;14
70243;PMS7003;57634;51.136;17.024;2022-12-18T18:21:20;42;35;21
70243;PMS7003;57634;51.136;17.024;2022-12-18T18:24:21;27;23;15
70243;PMS7003;57634;51.136;17.024;2022-12-18T18:27:25;25;22;12
70243;PMS7003;57634;51.136;17.024;2022-12-18T18:30:27;20;17;9
70243;PMS7003;57634;51.136;17.024;2022-12-18T18:33:28;35;28;17
70243;PMS7003;57634;51.136;17.024;2022-12-18T18:36:29;21;17;6
70243;PMS7003;57634;51.136;17.024;2022-12-18T18:39:57;32;25;16
70243;PMS7003;57634;51.136;17.024;2022-12-18T18:42:58;28;25;16
70243;PMS7003;57634;51.136;17.024;2022-12-18T18:46:00;30;26;17
70243;PMS7003;57634;51.136;17.024;2022-12-18T18:49:02;29;25;17
70243;PMS7003;57634;51.136;17.024;2022-12-18T18:52:05;27;24;14
70243;PMS7003;57634;51.136;17.024;2022-12-18T18:55:08;34;27;16
70243;PMS7003;57634;51.136;17.024;2022-12-18T18:58:09;31;28;16
70243;PMS7003;57634;51.136;17.024;2022-12-18T19:01:12;37;31;19
70243;PMS7003;57634;51.136;17.024;2022-12-18T19:04:15;29;26;17
70243;PMS7003;57634;51.136;17.024;2022-12-18T19:07:16;47;36;22
70243;PMS7003;57634;51.136;17.024;2022-12-18T19:10:18;39;32;20
70243;PMS7003;57634;51.136;17.024;2022-12-18T19:13:19;42;34;21
70243;PMS7003;57634;51.136;17.024;2022-12-18T19:16:22;37;31;19
70243;PMS7003;57634;51.136;17.024;2022-12-18T19:19:52;20;16;7
70243;PMS7003;57634;51.136;17.024;2022-12-18T19:22:56;43;36;21
70243;PMS7003;57634;51.136;17.024;2022-12-18T19:26:01;38;31;19
70243;PMS7003;57634;51.136;17.024;2022-12-18T19:29:05;38;32;21
70243;PMS7003;57634;51.136;17.024;2022-12-18T19:32:07;37;30;19
70243;PMS7003;57634;51.136;17.024;2022-12-18T19:35:10;35;29;18
70243;PMS7003;57634;51.136;17.024;2022-12-18T19:38:11;34;31;19
70243;PMS7003;57634;51.136;17.024;2022-12-18T19:41:12;32;28;15
70243;PMS7003;57634;51.136;17.024;2022-12-18T19:44:15;36;29;18
70243;PMS7003;57634;51.136;17.024;2022-12-18T19:47:17;34;29;20
70243;PMS7003;57634;51.136;17.024;2022-12-18T19:50:18;32;27;17
70243;PMS7003;57634;51.136;17.024;2022-12-18T19:53:19;38;31;19
70243;PMS7003;57634;51.136;17.024;2022-12-18T19:56:48;42;35;22
70243;PMS7003;57634;51.136;17.024;2022-12-18T19:59:53;35;30;19
70243;PMS7003;57634;51.136;17.024;2022-12-18T20:02:54;41;33;20
70243;PMS7003;57634;51.136;17.024;2022-12-18T20:06:06;36;29;19
70243;PMS7003;57634;51.136;17.024;2022-12-18T20:09:08;38;29;18
70243;PMS7003;57634;51.136;17.024;2022-12-18T20:12:10;29;25;14
70243;PMS7003;57634;51.136;17.024;2022-12-18T20:15:11;39;32;20
70243;PMS7003;57634;51.136;17.024;2022-12-18T20:18:13;41;32;21
70243;PMS7003;57634;51.136;17.024;2022-12-18T20:21:14;35;28;18
70243;PMS7003;57634;51.136;17.024;2022-12-18T20:24:16;37;30;17
70243;PMS7003;57634;51.136;17.024;2022-12-18T20:27:17;35;29;18
70243;PMS7003;57634;51.136;17.024;2022-12-18T20:30:18;36;32;21
70243;PMS7003;57634;51.136;17.024;2022-12-18T20:33:46;31;29;18
70243;PMS7003;57634;51.136;17.024;2022-12-18T20:36:47;36;31;19
70243;PMS7003;57634;51.136;17.024;2022-12-18T20:39:48;39;31;20
70243;PMS7003;57634;51.136;17.024;2022-12-18T20:42:52;35;31;19
70243;PMS7003;57634;51.136;17.024;2022-12-18T20:49:05;33;27;17
70243;PMS7003;57634;51.136;17.024;2022-12-18T20:52:07;35;27;15
70243;PMS7003;57634;51.136;17.024;2022-12-18T20:55:09;36;29;15
70243;PMS7003;57634;51.136;17.024;2022-12-18T20:58:10;30;23;18
70243;PMS7003;57634;51.136;17.024;2022-12-18T21:01:13;39;30;19
70243;PMS7003;57634;51.136;17.024;2022-12-18T21:04:16;40;29;17
70243;PMS7003;57634;51.136;17.024;2022-12-18T21:07:46;43;36;21
70243;PMS7003;57634;51.136;17.024;2022-12-18T21:10:47;34;29;18
70243;PMS7003;57634;51.136;17.024;2022-12-18T21:13:48;21;16;4
70243;PMS7003;57634;51.136;17.024;2022-12-18T21:16:49;40;32;19
70243;PMS7003;57634;51.136;17.024;2022-12-18T21:19:52;35;29;18
70243;PMS7003;57634;51.136;17.024;2022-12-18T21:22:53;37;29;17
70243;PMS7003;57634;51.136;17.024;2022-12-18T21:26:05;46;35;22
70243;PMS7003;57634;51.136;17.024;2022-12-18T21:29:09;41;31;21
70243;PMS7003;57634;51.136;17.024;2022-12-18T21:32:12;44;33;20
70243;PMS7003;57634;51.136;17.024;2022-12-18T21:35:14;44;35;22
70243;PMS7003;57634;51.136;17.024;2022-12-18T21:38:17;43;34;23
70243;PMS7003;57634;51.136;17.024;2022-12-18T21:41:46;35;30;20
70243;PMS7003;57634;51.136;17.024;2022-12-18T21:45:00;47;36;22
70243;PMS7003;57634;51.136;17.024;2022-12-18T21:48:01;41;31;18
70243;PMS7003;57634;51.136;17.024;2022-12-18T21:51:02;34;28;18
70243;PMS7003;57634;51.136;17.024;2022-12-18T21:54:03;46;38;24
70243;PMS7003;57634;51.136;17.024;2022-12-18T21:57:05;41;36;22
70243;PMS7003;57634;51.136;17.024;2022-12-18T22:00:09;42;35;20